Time;durP1;ratioP1;P1;durP2;ratioP2;P2;SDS_P1;SDS_P2;PMS_P1;PMS_P2;Temp;Humidity;BMP_temperature;BMP_pressure;BME280_temperature;BME280_humidity;BME280_pressure;Samples;Min_cycle;Max_cycle;Signal;HPM_P1;HPM_P2
2022/10/27 00:00:30;;;;;;;13.38;9.35;;;14.00;99.90;;;;;;5030459;28;20048;-75
2022/10/27 00:02:56;;;;;;;10.82;7.68;;;14.00;99.90;;;;;;5062977;28;20504;-76
2022/10/27 00:05:22;;;;;;;12.77;8.38;;;14.00;99.90;;;;;;5059454;28;20081;-76
2022/10/27 00:07:48;;;;;;;11.32;7.72;;;13.90;99.90;;;;;;5040910;28;20931;-75
2022/10/27 00:10:14;;;;;;;13.45;8.20;;;13.90;99.90;;;;;;5063115;28;20629;-75
2022/10/27 00:12:40;;;;;;;14.35;8.48;;;13.90;99.90;;;;;;5062934;28;20055;-76
2022/10/27 00:15:06;;;;;;;11.13;7.20;;;13.90;99.90;;;;;;5045878;28;20097;-76
2022/10/27 00:17:32;;;;;;;15.02;9.82;;;13.80;99.90;;;;;;5045842;28;20376;-75
2022/10/27 00:20:01;;;;;;;13.05;8.15;;;13.80;99.90;;;;;;5046829;28;20098;-76
2022/10/27 00:22:27;;;;;;;13.73;9.27;;;13.80;99.90;;;;;;5042406;28;20037;-76
2022/10/27 00:24:53;;;;;;;15.13;10.48;;;13.80;99.90;;;;;;5043858;28;20052;-75
2022/10/27 00:27:18;;;;;;;12.60;8.38;;;13.70;99.90;;;;;;5034173;28;20698;-76
2022/10/27 00:29:44;;;;;;;13.43;9.20;;;13.70;99.90;;;;;;5045832;28;20516;-76
2022/10/27 00:32:10;;;;;;;11.18;8.55;;;13.80;99.90;;;;;;5041441;28;20045;-75
2022/10/27 00:34:36;;;;;;;15.23;8.98;;;13.70;99.90;;;;;;5059536;28;20039;-76
2022/10/27 00:37:02;;;;;;;15.98;10.05;;;13.70;99.90;;;;;;5061500;28;20051;-75
2022/10/27 00:39:28;;;;;;;14.40;8.60;;;13.70;99.90;;;;;;5046273;28;20499;-76
2022/10/27 00:41:57;;;;;;;15.75;9.77;;;13.70;99.90;;;;;;5060542;28;20421;-76
2022/10/27 00:44:44;;;;;;;16.05;10.20;;;13.70;99.90;;;;;;5060395;28;20044;-75
2022/10/27 00:47:34;;;;;;;13.95;9.60;;;13.70;99.90;;;;;;5042175;28;20115;-76
2022/10/27 00:50:09;;;;;;;14.60;9.48;;;13.70;99.90;;;;;;5042871;28;20368;-76
2022/10/27 00:52:42;;;;;;;11.90;8.63;;;13.60;99.90;;;;;;5054983;28;20055;-76
2022/10/27 00:55:37;;;;;;;15.80;9.85;;;13.60;99.90;;;;;;5041095;28;20559;-76
2022/10/27 00:58:06;;;;;;;12.02;8.57;;;13.60;99.90;;;;;;5060928;28;20048;-76
2022/10/27 01:00:36;;;;;;;12.38;8.70;;;13.60;99.90;;;;;;5056997;28;20669;-76
2022/10/27 01:03:02;;;;;;;15.13;9.43;;;13.50;99.90;;;;;;5054353;28;20102;-76
2022/10/27 01:05:29;;;;;;;15.90;10.73;;;13.50;99.90;;;;;;5057118;28;20046;-76
2022/10/27 01:07:59;;;;;;;17.20;9.98;;;13.50;99.90;;;;;;5060485;28;20051;-75
2022/10/27 01:10:26;;;;;;;16.88;9.77;;;13.50;99.90;;;;;;5031288;28;20057;-77
2022/10/27 01:12:53;;;;;;;15.30;10.02;;;13.40;99.90;;;;;;5061670;28;20036;-76
2022/10/27 01:15:24;;;;;;;13.27;10.27;;;13.40;99.90;;;;;;5035549;28;20883;-76
2022/10/27 01:18:04;;;;;;;15.13;9.57;;;13.40;99.90;;;;;;5042739;28;20482;-76
2022/10/27 01:20:48;;;;;;;13.15;10.70;;;13.40;99.90;;;;;;5058082;28;20044;-75
2022/10/27 01:23:25;;;;;;;13.45;10.65;;;13.30;99.90;;;;;;5040871;28;20055;-76
2022/10/27 01:25:57;;;;;;;14.65;11.73;;;13.40;99.90;;;;;;5033750;28;20127;-76
2022/10/27 01:28:22;;;;;;;17.48;12.80;;;13.30;99.90;;;;;;5041490;28;20051;-76
2022/10/27 01:31:08;;;;;;;14.52;11.40;;;13.40;99.90;;;;;;5060118;28;20797;-76
2022/10/27 01:33:50;;;;;;;15.73;11.68;;;13.40;99.90;;;;;;5047174;28;20049;-76
2022/10/27 01:36:29;;;;;;;15.85;12.38;;;13.40;99.90;;;;;;5056284;28;20040;-75
2022/10/27 01:39:03;;;;;;;16.02;12.20;;;13.40;99.90;;;;;;5043891;28;20044;-76
2022/10/27 01:41:40;;;;;;;16.80;10.75;;;13.40;99.90;;;;;;5042847;28;20438;-76
2022/10/27 01:44:12;;;;;;;15.98;12.32;;;13.40;99.90;;;;;;5058446;28;20055;-76
2022/10/27 01:46:39;;;;;;;13.20;11.00;;;13.40;99.90;;;;;;5042217;28;20041;-76
2022/10/27 01:49:07;;;;;;;15.68;12.15;;;13.40;99.90;;;;;;5041081;28;20039;-77
2022/10/27 01:51:32;;;;;;;13.25;11.60;;;13.40;99.90;;;;;;5049189;28;20075;-73
2022/10/27 01:54:01;;;;;;;19.33;12.35;;;13.40;99.90;;;;;;5060329;28;20056;-77
2022/10/27 01:56:42;;;;;;;17.10;13.18;;;13.40;99.90;;;;;;5026847;28;20052;-77
2022/10/27 01:59:17;;;;;;;19.38;14.43;;;13.50;99.90;;;;;;5041505;28;20041;-77
2022/10/27 02:02:00;;;;;;;15.13;13.00;;;13.50;99.90;;;;;;5045220;28;20358;-77
2022/10/27 02:04:38;;;;;;;18.60;12.95;;;13.60;99.90;;;;;;5044427;28;20047;-77
2022/10/27 02:07:21;;;;;;;17.20;14.02;;;13.60;99.90;;;;;;5051397;28;20435;-77
2022/10/27 02:09:53;;;;;;;16.63;13.38;;;13.60;99.90;;;;;;5053492;28;20045;-77
2022/10/27 02:12:35;;;;;;;16.67;13.38;;;13.60;99.90;;;;;;5058536;28;20464;-76
2022/10/27 02:15:04;;;;;;;16.65;13.10;;;13.60;99.90;;;;;;5036562;28;20119;-77
2022/10/27 02:17:37;;;;;;;16.08;13.35;;;13.60;99.90;;;;;;5049529;28;20076;-76
2022/10/27 02:20:07;;;;;;;20.13;12.63;;;13.60;99.90;;;;;;5046259;28;20049;-77
2022/10/27 02:22:35;;;;;;;16.15;12.68;;;13.60;99.90;;;;;;5064371;28;20106;-77
2022/10/27 02:25:01;;;;;;;17.77;13.35;;;13.50;99.90;;;;;;5049276;28;20102;-77
2022/10/27 02:27:44;;;;;;;18.83;13.27;;;13.50;99.90;;;;;;5042053;28;20052;-77
2022/10/27 02:30:13;;;;;;;17.88;13.13;;;13.50;99.90;;;;;;5068666;28;20517;-77
2022/10/27 02:32:40;;;;;;;14.20;12.13;;;13.50;99.90;;;;;;5043971;28;20087;-77
2022/10/27 02:35:08;;;;;;;17.90;12.85;;;13.50;99.90;;;;;;5050822;28;20094;-77
2022/10/27 02:37:40;;;;;;;15.20;11.27;;;13.50;99.90;;;;;;5055183;28;20169;-76
2022/10/27 02:40:07;;;;;;;18.77;12.13;;;13.40;99.90;;;;;;5044291;28;20884;-77
2022/10/27 02:42:34;;;;;;;18.63;14.18;;;13.40;99.90;;;;;;5057319;28;20418;-75
2022/10/27 02:44:59;;;;;;;20.33;15.68;;;13.30;99.90;;;;;;5054412;28;20108;-75
2022/10/27 02:47:25;;;;;;;23.25;18.30;;;13.30;99.90;;;;;;5030072;28;20057;-76
2022/10/27 02:49:51;;;;;;;18.42;16.45;;;13.30;99.90;;;;;;5059286;28;20127;-76
2022/10/27 02:52:17;;;;;;;17.20;14.57;;;13.30;99.90;;;;;;5045134;28;20786;-76
2022/10/27 02:54:47;;;;;;;16.08;12.90;;;13.30;99.90;;;;;;5053884;28;20084;-76
2022/10/27 02:57:17;;;;;;;22.55;15.25;;;13.20;99.90;;;;;;5049067;28;20041;-76
2022/10/27 02:59:43;;;;;;;15.82;14.07;;;13.20;99.90;;;;;;5037858;28;20048;-76
2022/10/27 03:02:09;;;;;;;17.50;14.07;;;13.20;99.90;;;;;;5056790;28;20045;-76
2022/10/27 03:04:35;;;;;;;19.48;15.40;;;13.20;99.90;;;;;;5058139;28;20051;-76
2022/10/27 03:07:01;;;;;;;18.38;14.82;;;13.20;99.90;;;;;;5066126;28;20453;-76
2022/10/27 03:09:27;;;;;;;23.98;17.70;;;13.20;99.90;;;;;;5047228;28;20102;-76
2022/10/27 03:11:53;;;;;;;18.55;14.55;;;13.20;99.90;;;;;;5066609;28;20048;-73
2022/10/27 03:14:18;;;;;;;23.50;17.33;;;13.20;99.90;;;;;;5034511;28;20036;-73
2022/10/27 03:16:44;;;;;;;18.95;15.30;;;13.20;99.90;;;;;;5054044;28;20499;-72
2022/10/27 03:19:10;;;;;;;28.13;18.27;;;13.10;99.90;;;;;;5061171;28;20049;-76
2022/10/27 03:21:36;;;;;;;19.17;16.85;;;13.20;99.90;;;;;;5026872;28;20033;-76
2022/10/27 03:24:01;;;;;;;27.00;18.95;;;13.20;99.90;;;;;;5051052;28;20048;-76
2022/10/27 03:26:27;;;;;;;22.50;15.85;;;13.20;99.90;;;;;;5043470;28;20041;-76
2022/10/27 03:28:53;;;;;;;27.13;19.15;;;13.20;99.90;;;;;;5061635;28;20040;-76
2022/10/27 03:31:19;;;;;;;20.70;15.07;;;13.20;99.90;;;;;;5037120;28;20274;-77
2022/10/27 03:33:44;;;;;;;20.33;16.10;;;13.20;99.90;;;;;;5056417;28;20037;-76
2022/10/27 03:36:13;;;;;;;23.48;19.48;;;13.20;99.90;;;;;;5058869;28;20095;-77
2022/10/27 03:38:39;;;;;;;16.52;14.15;;;13.20;99.90;;;;;;5040084;28;20053;-77
2022/10/27 03:41:05;;;;;;;22.27;17.35;;;13.20;99.90;;;;;;5013408;28;20039;-77
2022/10/27 03:43:30;;;;;;;18.08;15.38;;;13.20;99.90;;;;;;5044711;28;20144;-77
2022/10/27 03:45:56;;;;;;;24.20;17.30;;;13.20;99.90;;;;;;5033599;28;20137;-76
2022/10/27 03:48:22;;;;;;;22.05;15.35;;;13.20;99.90;;;;;;5038618;28;20479;-76
2022/10/27 03:50:49;;;;;;;20.27;15.50;;;13.20;99.90;;;;;;5027382;28;20558;-77
2022/10/27 03:53:18;;;;;;;22.33;15.65;;;13.20;99.90;;;;;;5048869;28;20048;-76
2022/10/27 03:55:47;;;;;;;18.85;15.68;;;13.20;99.90;;;;;;5052537;28;20846;-76
2022/10/27 03:58:14;;;;;;;24.48;16.38;;;13.10;99.90;;;;;;5050843;28;20045;-77
2022/10/27 04:00:40;;;;;;;26.30;20.48;;;13.10;99.90;;;;;;5027968;28;20037;-76
2022/10/27 04:03:06;;;;;;;16.35;14.32;;;13.10;99.90;;;;;;5051578;28;20033;-77
2022/10/27 04:05:32;;;;;;;18.42;14.02;;;13.10;99.90;;;;;;5032564;28;20415;-76
2022/10/27 04:08:01;;;;;;;22.48;17.98;;;13.10;99.90;;;;;;5040094;28;20047;-76
2022/10/27 04:10:27;;;;;;;21.10;15.85;;;13.00;99.90;;;;;;5039513;28;20124;-76
2022/10/27 04:12:55;;;;;;;18.75;15.70;;;13.00;99.90;;;;;;5042437;28;20132;-76
2022/10/27 04:15:24;;;;;;;19.90;14.68;;;13.00;99.90;;;;;;5045369;28;20123;-76
2022/10/27 04:17:57;;;;;;;18.75;16.10;;;13.00;99.90;;;;;;5040171;28;20103;-76
2022/10/27 04:20:24;;;;;;;17.65;15.75;;;13.00;99.90;;;;;;5059628;28;20047;-76
2022/10/27 04:22:50;;;;;;;22.88;16.92;;;13.00;99.90;;;;;;5057319;28;20101;-76
2022/10/27 04:25:16;;;;;;;27.27;18.25;;;13.00;99.90;;;;;;5047371;28;20044;-76
2022/10/27 04:27:42;;;;;;;18.55;16.10;;;13.00;99.90;;;;;;5035682;28;20040;-77
2022/10/27 04:30:08;;;;;;;21.00;15.40;;;13.00;99.90;;;;;;5063176;28;20403;-76
2022/10/27 04:32:34;;;;;;;22.67;17.00;;;13.00;99.90;;;;;;5055281;28;20056;-77
2022/10/27 04:35:00;;;;;;;18.45;15.32;;;13.00;99.90;;;;;;5058658;28;20037;-76
2022/10/27 04:37:26;;;;;;;23.35;16.67;;;13.00;99.90;;;;;;5042407;28;20052;-76
2022/10/27 04:39:51;;;;;;;22.10;16.05;;;12.90;99.90;;;;;;5059612;28;20075;-76
2022/10/27 04:42:17;;;;;;;33.45;23.15;;;12.90;99.90;;;;;;5027544;28;20044;-76
2022/10/27 04:44:43;;;;;;;18.90;14.48;;;12.90;99.90;;;;;;5057277;28;20056;-76
2022/10/27 04:47:08;;;;;;;17.63;14.35;;;12.90;99.90;;;;;;5059342;28;20499;-77
2022/10/27 04:49:34;;;;;;;21.15;17.65;;;12.80;99.90;;;;;;5061474;28;20044;-76
2022/10/27 04:52:00;;;;;;;17.58;15.15;;;12.80;99.90;;;;;;5055030;28;20045;-77
2022/10/27 04:54:26;;;;;;;18.90;16.63;;;12.80;99.90;;;;;;5044453;28;20075;-77
2022/10/27 04:56:51;;;;;;;19.83;16.08;;;12.80;99.90;;;;;;5027879;28;20561;-76
2022/10/27 04:59:17;;;;;;;19.35;16.08;;;12.80;99.90;;;;;;5028260;28;20936;-77
2022/10/27 05:01:43;;;;;;;23.58;19.88;;;12.70;99.90;;;;;;5041252;28;20390;-77
2022/10/27 05:04:09;;;;;;;21.20;19.00;;;12.80;99.90;;;;;;5032729;28;20705;-76
2022/10/27 05:06:34;;;;;;;22.55;20.05;;;12.80;99.90;;;;;;5045843;28;20055;-77
2022/10/27 05:09:00;;;;;;;23.92;19.75;;;12.80;99.90;;;;;;5012191;28;20047;-77
2022/10/27 05:11:26;;;;;;;25.05;20.52;;;12.80;99.90;;;;;;5026774;28;20048;-76
2022/10/27 05:13:51;;;;;;;28.85;21.98;;;12.80;99.90;;;;;;5045920;28;20070;-77
2022/10/27 05:16:18;;;;;;;29.05;23.67;;;12.80;99.90;;;;;;5041400;28;20110;-77
2022/10/27 05:18:44;;;;;;;33.35;27.40;;;12.90;99.90;;;;;;5044870;28;20036;-77
2022/10/27 05:21:10;;;;;;;28.63;23.90;;;12.90;99.90;;;;;;5038338;28;20481;-76
2022/10/27 05:23:35;;;;;;;29.13;24.52;;;12.90;99.90;;;;;;5040999;28;20051;-77
2022/10/27 05:26:01;;;;;;;28.08;23.85;;;12.90;99.90;;;;;;5040929;28;20054;-78
2022/10/27 05:28:27;;;;;;;32.75;28.27;;;12.90;99.90;;;;;;5042149;28;20093;-79
2022/10/27 05:30:57;;;;;;;23.90;21.52;;;12.90;99.90;;;;;;5037848;28;20041;-77
2022/10/27 05:33:23;;;;;;;;;;;13.00;99.90;;;;;;5056337;28;20037;-77
2022/10/27 05:35:49;;;;;;;25.10;22.70;;;13.00;99.90;;;;;;5056632;28;19928;-77
2022/10/27 05:38:16;;;;;;;27.88;24.95;;;12.90;99.90;;;;;;5032054;28;20380;-77
2022/10/27 05:40:41;;;;;;;31.50;25.85;;;13.00;99.90;;;;;;5058392;28;20048;-77
2022/10/27 05:43:08;;;;;;;25.17;22.58;;;13.00;99.90;;;;;;5042070;28;20048;-77
2022/10/27 05:45:35;;;;;;;30.38;26.67;;;13.00;99.90;;;;;;5044773;28;20458;-76
2022/10/27 05:48:06;;;;;;;25.05;22.35;;;13.00;99.90;;;;;;5046577;28;20044;-77
2022/10/27 05:50:32;;;;;;;26.38;23.35;;;13.00;99.90;;;;;;5053466;28;20097;-77
2022/10/27 05:52:58;;;;;;;25.50;22.88;;;13.10;99.90;;;;;;5056218;28;20499;-77
2022/10/27 05:55:24;;;;;;;25.13;22.15;;;13.00;99.90;;;;;;5056813;28;20067;-77
2022/10/27 05:58:01;;;;;;;25.08;22.48;;;13.10;99.90;;;;;;5041739;28;20052;-76
2022/10/27 06:00:30;;;;;;;23.40;20.95;;;13.10;99.90;;;;;;5055064;28;20044;-77
2022/10/27 06:02:58;;;;;;;29.98;24.48;;;13.20;99.90;;;;;;5051132;28;20044;-76
2022/10/27 06:05:25;;;;;;;23.50;21.02;;;13.20;99.90;;;;;;5017576;28;20072;-77
2022/10/27 06:07:51;;;;;;;23.58;20.70;;;13.20;99.90;;;;;;5058575;28;20466;-77
2022/10/27 06:10:17;;;;;;;24.65;22.05;;;13.20;99.90;;;;;;5044940;28;20072;-77
2022/10/27 06:12:43;;;;;;;26.17;22.98;;;13.30;99.90;;;;;;5064314;28;20048;-76
2022/10/27 06:15:09;;;;;;;23.95;21.35;;;13.30;99.90;;;;;;5056079;28;20041;-76
2022/10/27 06:17:35;;;;;;;25.17;21.83;;;13.30;99.90;;;;;;5059763;28;20136;-77
2022/10/27 06:20:01;;;;;;;21.50;19.30;;;13.30;99.90;;;;;;5054822;28;20053;-76
2022/10/27 06:22:26;;;;;;;21.95;19.80;;;13.30;99.90;;;;;;5040779;28;20107;-76
2022/10/27 06:24:52;;;;;;;22.58;20.38;;;13.30;99.90;;;;;;5055692;28;20043;-76
2022/10/27 06:27:18;;;;;;;22.52;19.33;;;13.30;99.90;;;;;;5026424;28;20765;-76
2022/10/27 06:29:44;;;;;;;20.52;18.40;;;13.30;99.90;;;;;;5031726;28;20045;-78
2022/10/27 06:32:09;;;;;;;23.23;20.48;;;13.40;99.90;;;;;;5044360;28;20372;-77
2022/10/27 06:34:35;;;;;;;20.08;18.00;;;13.40;99.90;;;;;;5045205;28;20036;-78
2022/10/27 06:37:02;;;;;;;27.35;21.48;;;13.40;99.90;;;;;;5043602;28;20053;-78
2022/10/27 06:39:29;;;;;;;21.10;17.45;;;13.40;99.90;;;;;;5045330;28;20046;-78
2022/10/27 06:41:55;;;;;;;20.13;18.02;;;13.40;99.90;;;;;;5049118;28;20060;-77
2022/10/27 06:44:21;;;;;;;19.98;17.30;;;13.40;99.90;;;;;;5077340;28;20040;-78
2022/10/27 06:46:47;;;;;;;21.25;17.58;;;13.40;99.90;;;;;;5063141;28;20405;-78
2022/10/27 06:49:13;;;;;;;20.42;16.55;;;13.50;99.90;;;;;;5029286;28;20067;-77
2022/10/27 06:51:39;;;;;;;20.15;16.65;;;13.50;99.90;;;;;;5045043;28;20052;-78
2022/10/27 06:54:05;;;;;;;19.73;17.10;;;13.50;99.90;;;;;;5057610;28;20071;-78
2022/10/27 06:56:31;;;;;;;18.42;16.38;;;13.50;99.90;;;;;;5046964;28;20131;-78
2022/10/27 06:58:56;;;;;;;18.23;16.27;;;13.60;99.90;;;;;;5057817;28;20045;-77
2022/10/27 07:01:22;;;;;;;17.88;15.27;;;13.60;99.90;;;;;;5041513;28;20842;-78
2022/10/27 07:03:50;;;;;;;18.85;15.80;;;13.60;99.90;;;;;;5061402;28;20040;-80
2022/10/27 07:06:15;;;;;;;17.98;15.40;;;13.60;99.90;;;;;;5060361;28;20041;-81
2022/10/27 07:08:41;;;;;;;18.65;15.32;;;13.60;99.90;;;;;;5014979;28;20410;-81
2022/10/27 07:11:08;;;;;;;18.00;14.30;;;13.60;99.90;;;;;;5063007;28;20483;-81
2022/10/27 07:13:35;;;;;;;18.55;15.02;;;13.70;99.90;;;;;;5062322;28;20135;-81
2022/10/27 07:16:01;;;;;;;15.63;13.25;;;13.70;99.90;;;;;;5040593;28;20098;-81
2022/10/27 07:18:27;;;;;;;17.08;14.75;;;13.80;99.90;;;;;;5063024;28;20040;-82
2022/10/27 07:20:53;;;;;;;14.30;12.73;;;13.80;99.90;;;;;;5042848;28;20087;-82
2022/10/27 07:23:19;;;;;;;19.20;14.18;;;13.80;99.90;;;;;;5029649;28;20461;-83
2022/10/27 07:25:48;;;;;;;15.27;12.52;;;13.80;99.90;;;;;;5043529;28;20067;-82
2022/10/27 07:28:14;;;;;;;16.47;12.73;;;13.90;99.90;;;;;;5059256;28;20046;-82
2022/10/27 07:30:44;;;;;;;18.17;12.57;;;13.90;99.90;;;;;;5042102;28;20454;-83
2022/10/27 07:33:13;;;;;;;13.95;12.18;;;14.00;99.90;;;;;;5044919;28;20125;-82
2022/10/27 07:35:39;;;;;;;15.02;12.63;;;14.00;99.90;;;;;;5054537;28;20036;-82
2022/10/27 07:38:06;;;;;;;17.40;12.80;;;14.00;99.90;;;;;;5059552;28;20037;-82
2022/10/27 07:40:33;;;;;;;20.75;12.48;;;14.00;99.90;;;;;;5045250;28;20037;-82
2022/10/27 07:43:00;;;;;;;16.55;12.65;;;14.10;99.90;;;;;;5043479;28;20049;-82
2022/10/27 07:45:26;;;;;;;14.57;10.60;;;14.10;99.90;;;;;;5030262;28;20040;-82
2022/10/27 07:47:55;;;;;;;15.30;10.88;;;14.10;99.90;;;;;;5046453;28;20044;-82
2022/10/27 07:50:28;;;;;;;14.75;11.18;;;14.20;99.90;;;;;;5042810;28;20512;-82
2022/10/27 07:52:55;;;;;;;15.88;11.57;;;14.20;99.90;;;;;;5058492;28;20396;-82
2022/10/27 07:55:22;;;;;;;16.30;11.07;;;14.30;99.90;;;;;;5061273;28;20032;-82
2022/10/27 07:58:08;;;;;;;14.68;10.98;;;14.30;99.90;;;;;;5042873;28;20135;-82
2022/10/27 08:00:37;;;;;;;14.82;11.32;;;14.40;99.90;;;;;;5060894;28;20048;-82
2022/10/27 08:03:04;;;;;;;13.85;10.55;;;14.40;99.90;;;;;;5041304;28;20048;-83
2022/10/27 08:05:32;;;;;;;14.50;10.73;;;14.40;99.90;;;;;;5024488;28;20048;-82
2022/10/27 08:08:00;;;;;;;14.77;11.02;;;14.50;99.90;;;;;;5046145;28;20256;-83
2022/10/27 08:10:26;;;;;;;17.85;10.25;;;14.50;99.90;;;;;;5057288;28;20056;-82
2022/10/27 08:12:52;;;;;;;13.38;9.65;;;14.60;99.90;;;;;;5043436;28;20067;-82
2022/10/27 08:15:18;;;;;;;15.65;10.52;;;14.60;99.90;;;;;;5013405;28;20495;-83
2022/10/27 08:17:44;;;;;;;15.43;9.65;;;14.70;99.90;;;;;;5045728;28;20304;-82
2022/10/27 08:20:10;;;;;;;13.23;9.82;;;14.70;99.90;;;;;;5057991;28;20049;-80
2022/10/27 08:22:36;;;;;;;12.40;9.40;;;14.80;99.90;;;;;;5062920;28;20040;-80
2022/10/27 08:25:02;;;;;;;15.15;10.82;;;14.80;99.90;;;;;;5022545;28;20052;-82
2022/10/27 08:27:31;;;;;;;13.25;9.43;;;14.80;99.90;;;;;;5048109;28;20369;-82
2022/10/27 08:29:57;;;;;;;13.87;10.40;;;14.80;99.90;;;;;;5061507;28;20052;-82
2022/10/27 08:32:23;;;;;;;11.57;8.75;;;14.90;99.90;;;;;;5056495;28;20120;-82
2022/10/27 08:34:49;;;;;;;14.10;9.25;;;14.90;99.90;;;;;;5076231;28;20059;-81
2022/10/27 08:37:15;;;;;;;14.02;9.63;;;14.90;99.90;;;;;;5064029;28;20090;-81
2022/10/27 08:39:40;;;;;;;13.50;9.38;;;14.90;99.90;;;;;;5027034;28;20148;-82
2022/10/27 08:42:31;;;;;;;16.23;8.77;;;14.90;99.90;;;;;;5040883;28;20051;-81
2022/10/27 08:45:14;;;;;;;11.90;8.55;;;15.00;99.90;;;;;;5043543;28;20056;-80
2022/10/27 08:47:40;;;;;;;13.77;8.15;;;15.10;99.90;;;;;;5060530;28;20059;-80
2022/10/27 08:50:18;;;;;;;13.27;8.60;;;15.20;99.90;;;;;;5029769;28;20491;-81
2022/10/27 08:52:47;;;;;;;12.38;8.55;;;15.20;99.90;;;;;;5061869;28;20040;-80
2022/10/27 08:55:13;;;;;;;12.02;7.90;;;15.30;99.90;;;;;;5042347;28;20040;-81
2022/10/27 08:57:47;;;;;;;10.52;7.85;;;15.50;99.90;;;;;;5055907;28;20131;-82
2022/10/27 09:00:14;;;;;;;10.88;7.68;;;15.50;99.90;;;;;;5071417;28;20143;-73
2022/10/27 09:03:31;;;;;;;12.15;7.55;;;15.60;99.90;;;;;;5037977;28;20037;-74
2022/10/27 09:06:23;;;;;;;11.27;7.65;;;15.70;99.90;;;;;;5040646;28;20145;-74
2022/10/27 09:09:23;;;;;;;9.57;7.43;;;15.80;99.90;;;;;;5055324;28;20893;-73
2022/10/27 09:11:57;;;;;;;;;;;15.90;99.90;;;;;;5056376;28;20045;-81
2022/10/27 09:14:44;;;;;;;11.73;7.68;;;16.00;99.90;;;;;;5060988;28;20397;-81
2022/10/27 09:17:34;;;;;;;12.45;7.63;;;16.00;99.90;;;;;;5056250;28;20396;-81
2022/10/27 09:20:07;;;;;;;11.68;7.28;;;16.10;99.90;;;;;;5074706;28;20056;-81
2022/10/27 09:22:37;;;;;;;8.65;6.35;;;16.20;99.90;;;;;;5057093;28;20087;-80
2022/10/27 09:25:06;;;;;;;11.57;6.85;;;16.30;99.90;;;;;;5079712;28;20048;-81
2022/10/27 09:27:33;;;;;;;9.43;6.45;;;16.40;99.90;;;;;;5043388;28;20044;-81
2022/10/27 09:30:04;;;;;;;13.00;7.28;;;16.50;99.90;;;;;;5042871;28;20045;-81
2022/10/27 09:32:33;;;;;;;9.48;6.03;;;16.50;99.90;;;;;;5042227;28;20048;-81
2022/10/27 09:35:08;;;;;;;10.05;6.53;;;16.50;99.90;;;;;;5039755;28;20045;-81
2022/10/27 09:37:40;;;;;;;10.80;7.07;;;16.60;99.90;;;;;;5042076;28;20041;-81
2022/10/27 09:40:17;;;;;;;12.50;6.53;;;16.60;99.90;;;;;;5055247;28;20936;-81
2022/10/27 09:42:44;;;;;;;9.95;6.00;;;16.60;99.90;;;;;;5056005;28;20135;-80
2022/10/27 09:45:19;;;;;;;9.63;6.50;;;16.70;99.90;;;;;;5043196;28;20124;-81
2022/10/27 09:47:58;;;;;;;7.18;5.72;;;16.70;99.90;;;;;;5060340;28;20044;-80
2022/10/27 09:50:35;;;;;;;9.38;6.13;;;16.80;99.90;;;;;;5058734;28;20257;-81
2022/10/27 09:53:02;;;;;;;8.60;5.63;;;16.80;99.90;;;;;;5056804;28;20413;-81
2022/10/27 09:55:51;;;;;;;8.13;5.50;;;16.80;99.90;;;;;;5043477;28;20033;-81
2022/10/27 09:58:18;;;;;;;9.98;5.63;;;16.80;99.90;;;;;;5043305;28;20051;-80
2022/10/27 10:00:44;;;;;;;9.60;5.10;;;16.90;99.90;;;;;;5053727;28;20560;-80
2022/10/27 10:03:20;;;;;;;6.53;5.00;;;16.90;99.90;;;;;;5040253;28;20040;-80
2022/10/27 10:06:00;;;;;;;7.95;4.63;;;17.00;99.90;;;;;;5055691;28;20040;-80
2022/10/27 10:08:28;;;;;;;8.43;4.80;;;17.00;99.90;;;;;;5060859;28;20036;-80
2022/10/27 10:11:00;;;;;;;9.88;4.65;;;17.10;99.90;;;;;;5057994;28;20049;-80
2022/10/27 10:13:30;;;;;;;9.45;3.97;;;17.10;99.90;;;;;;5044255;28;20041;-80
2022/10/27 10:16:16;;;;;;;7.90;3.85;;;17.20;99.90;;;;;;5071253;28;20074;-81
2022/10/27 10:19:06;;;;;;;6.65;3.33;;;17.30;99.90;;;;;;5057236;28;20060;-80
2022/10/27 10:21:50;;;;;;;5.57;3.58;;;17.40;99.90;;;;;;5061143;28;20499;-81
2022/10/27 10:24:36;;;;;;;6.65;3.63;;;17.50;99.90;;;;;;5036530;28;20045;-81
2022/10/27 10:27:04;;;;;;;7.10;3.22;;;17.60;99.90;;;;;;5057998;28;20052;-80
2022/10/27 10:29:46;;;;;;;5.93;3.17;;;17.70;99.90;;;;;;5060619;28;20387;-81
2022/10/27 10:32:24;;;;;;;6.60;2.90;;;17.70;99.90;;;;;;5056361;28;20040;-80
2022/10/27 10:34:52;;;;;;;6.07;2.50;;;17.80;99.90;;;;;;5043610;28;20094;-80
2022/10/27 10:37:41;;;;;;;5.82;2.00;;;17.90;99.90;;;;;;5043258;28;20129;-81
2022/10/27 10:40:13;;;;;;;6.93;2.33;;;18.00;99.90;;;;;;5056669;28;20592;-81
2022/10/27 10:42:46;;;;;;;6.47;2.40;;;18.00;99.90;;;;;;5075711;28;20090;-82
2022/10/27 10:45:21;;;;;;;5.03;2.00;;;18.00;99.90;;;;;;5041864;28;20033;-80
2022/10/27 10:47:49;;;;;;;5.78;2.08;;;18.10;99.90;;;;;;5042678;28;20438;-81
2022/10/27 10:50:16;;;;;;;5.05;1.80;;;18.00;99.90;;;;;;5060647;28;20499;-81
2022/10/27 10:52:49;;;;;;;5.45;1.80;;;18.10;99.90;;;;;;5029558;28;20044;-81
2022/10/27 10:55:37;;;;;;;5.45;1.95;;;18.10;99.90;;;;;;5045288;28;20041;-81
2022/10/27 10:58:03;;;;;;;6.50;1.92;;;18.20;99.90;;;;;;5042129;28;20406;-82
2022/10/27 11:00:29;;;;;;;5.35;1.80;;;18.20;99.90;;;;;;5061306;28;20135;-81
2022/10/27 11:03:09;;;;;;;5.88;2.03;;;18.20;99.90;;;;;;5042457;28;20040;-81
2022/10/27 11:05:35;;;;;;;;;;;18.30;99.90;;;;;;5059697;28;20079;-81
2022/10/27 11:08:04;;;;;;;5.28;1.60;;;18.40;99.90;;;;;;5058093;28;19921;-74
2022/10/27 11:10:40;;;;;;;4.65;1.40;;;18.50;99.90;;;;;;5062104;28;20281;-81
2022/10/27 11:13:19;;;;;;;5.85;1.35;;;18.50;99.90;;;;;;5060695;28;20078;-82
2022/10/27 11:15:59;;;;;;;9.90;2.10;;;18.60;99.90;;;;;;5046890;28;20529;-83
2022/10/27 11:19:00;;;;;;;2.10;0.93;;;18.70;99.90;;;;;;5043255;28;20437;-81
2022/10/27 11:21:38;;;;;;;5.28;1.45;;;18.80;99.90;;;;;;5016346;28;20052;-81
2022/10/27 11:24:14;;;;;;;3.80;1.20;;;18.80;99.90;;;;;;5062961;28;20052;-82
2022/10/27 11:26:51;;;;;;;3.70;1.15;;;18.80;99.90;;;;;;5061260;28;20581;-81
2022/10/27 11:29:34;;;;;;;5.57;1.20;;;18.70;99.90;;;;;;5074587;28;20044;-82
2022/10/27 11:32:27;;;;;;;5.20;1.33;;;18.70;99.90;;;;;;5056176;28;20079;-81
2022/10/27 11:35:15;;;;;;;5.85;1.42;;;18.70;99.90;;;;;;5056956;28;20041;-81
2022/10/27 11:38:19;;;;;;;7.25;1.27;;;18.60;99.90;;;;;;5061556;28;20040;-81
2022/10/27 11:40:45;;;;;;;4.72;1.20;;;18.50;99.90;;;;;;5056945;28;20491;-81
2022/10/27 11:43:31;;;;;;;4.68;1.40;;;18.50;99.90;;;;;;5074806;28;20097;-81
2022/10/27 11:46:03;;;;;;;4.63;1.38;;;18.50;99.90;;;;;;5061824;28;20188;-81
2022/10/27 11:48:38;;;;;;;4.93;1.50;;;18.50;99.90;;;;;;5045589;28;20429;-81
2022/10/27 11:51:25;;;;;;;4.88;1.65;;;18.50;99.90;;;;;;5057926;28;20036;-81
2022/10/27 11:53:51;;;;;;;6.38;1.63;;;18.50;99.90;;;;;;5046872;28;20040;-81
2022/10/27 11:56:20;;;;;;;8.27;2.00;;;18.50;99.90;;;;;;5043229;28;20371;-81
2022/10/27 11:59:40;;;;;;;5.10;1.55;;;18.50;99.90;;;;;;5061462;28;20068;-81
2022/10/27 12:02:31;;;;;;;;;;;18.50;99.90;;;;;;4966829;28;20084;-81
2022/10/27 12:05:10;;;;;;;4.32;1.20;;;18.50;99.90;;;;;;5044151;28;19934;-82
2022/10/27 12:08:02;;;;;;;4.43;1.20;;;18.50;99.90;;;;;;5045766;28;21360;-81
2022/10/27 12:10:56;;;;;;;5.30;1.63;;;18.40;99.90;;;;;;5059400;28;20044;-81
2022/10/27 12:13:26;;;;;;;3.80;1.80;;;18.40;99.90;;;;;;5045603;28;20564;-81
2022/10/27 12:16:02;;;;;;;6.10;1.90;;;18.40;99.90;;;;;;5057491;28;20663;-81
2022/10/27 12:18:52;;;;;;;6.40;1.77;;;18.40;99.90;;;;;;5045652;28;20553;-81
2022/10/27 12:21:35;;;;;;;4.10;1.50;;;18.30;99.90;;;;;;5061654;28;20147;-82
2022/10/27 12:24:08;;;;;;;5.70;1.70;;;18.30;99.90;;;;;;5056525;28;20460;-81
2022/10/27 12:26:55;;;;;;;4.90;1.40;;;18.40;99.90;;;;;;5043486;28;20055;-81
2022/10/27 12:29:23;;;;;;;4.95;1.90;;;18.40;99.90;;;;;;5060164;28;20039;-82
2022/10/27 12:32:15;;;;;;;6.15;1.73;;;18.40;99.90;;;;;;5044239;28;20106;-82
2022/10/27 12:34:48;;;;;;;6.55;2.10;;;18.40;99.90;;;;;;5046025;28;20879;-81
2022/10/27 12:37:29;;;;;;;6.45;1.83;;;18.40;99.90;;;;;;5057174;28;20051;-81
2022/10/27 12:40:03;;;;;;;4.93;1.52;;;18.40;99.90;;;;;;5042610;28;20059;-81
2022/10/27 12:42:52;;;;;;;7.18;2.08;;;18.40;99.90;;;;;;5073245;28;20052;-80
2022/10/27 12:45:47;;;;;;;5.95;1.73;;;18.40;99.90;;;;;;5057644;28;20134;-81
2022/10/27 12:48:34;;;;;;;6.85;2.20;;;18.50;99.90;;;;;;5062206;28;20047;-81
2022/10/27 12:51:00;;;;;;;5.75;2.45;;;18.50;99.90;;;;;;5056497;28;20033;-81
2022/10/27 12:53:41;;;;;;;7.25;2.13;;;18.50;99.90;;;;;;5058920;28;20048;-81
2022/10/27 12:56:26;;;;;;;6.57;2.20;;;18.60;99.90;;;;;;5056085;28;20044;-81